createdAt,value
2019-04-26T00:00:52.777Z,93220.73
2019-04-26T00:03:37.879Z,93234.81
2019-04-26T00:06:08.983Z,93242.45
2019-04-26T00:08:38.749Z,93256.33
2019-04-26T00:11:24.324Z,93258.02
2019-04-26T00:13:57.232Z,93259.71
2019-04-26T00:16:27.373Z,93262.66
2019-04-26T00:18:55.801Z,93260.57
2019-04-26T00:21:24.239Z,93246.20
2019-04-26T00:23:53.198Z,93244.55
2019-04-26T00:26:22.064Z,93248.09
2019-04-26T00:28:50.659Z,93250.55
2019-04-26T00:31:19.249Z,93250.77
2019-04-26T00:33:47.745Z,93262.31
2019-04-26T00:36:16.662Z,93269.47
2019-04-26T00:38:45.241Z,93263.47
2019-04-26T00:41:14.116Z,93270.27
2019-04-26T00:43:43.187Z,93277.56
2019-04-26T00:46:14.625Z,93273.73
2019-04-26T00:48:44.590Z,93272.59
2019-04-26T00:51:15.218Z,93262.31
2019-04-26T00:53:46.220Z,93272.00
2019-04-26T00:56:16.079Z,93287.84
2019-04-26T00:58:44.663Z,93292.22
2019-04-26T01:01:15.120Z,93285.99
2019-04-26T01:03:45.017Z,93277.48
2019-04-26T01:06:15.971Z,93264.31
2019-04-26T01:08:45.509Z,93260.70
2019-04-26T01:11:14.027Z,93269.84
2019-04-26T01:13:42.451Z,93276.20
2019-04-26T01:16:10.935Z,93279.98
2019-04-26T01:18:40.035Z,93282.27
2019-04-26T01:21:10.997Z,93286.31
2019-04-26T01:23:42.086Z,93281.29
2019-04-26T01:26:25.907Z,93277.25
2019-04-26T01:28:59.967Z,93281.14
2019-04-26T01:31:30.966Z,93285.09
2019-04-26T01:33:59.505Z,93294.09
2019-04-26T01:36:31.021Z,93290.46
2019-04-26T01:39:10.031Z,93294.25
2019-04-26T01:41:40.223Z,93296.58
2019-04-26T01:44:10.475Z,93294.58
2019-04-26T01:46:44.489Z,93291.60
2019-04-26T01:49:15.395Z,93282.52
2019-04-26T01:51:52.693Z,93274.53
2019-04-26T01:54:24.236Z,93280.39
2019-04-26T01:56:55.699Z,93269.34
2019-04-26T01:59:25.330Z,93256.91
2019-04-26T02:02:11.725Z,93259.29
2019-04-26T02:04:51.209Z,93257.89
2019-04-26T02:07:21.779Z,93255.33
2019-04-26T02:09:50.440Z,93256.89
2019-04-26T02:12:18.968Z,93262.13
2019-04-26T02:14:47.380Z,93261.98
2019-04-26T02:17:15.845Z,93263.39
2019-04-26T02:19:44.396Z,93269.69
2019-04-26T02:22:14.619Z,93268.99
2019-04-26T02:24:44.706Z,93276.92
2019-04-26T02:27:15.004Z,93276.78
2019-04-26T02:29:43.546Z,93272.68
2019-04-26T02:32:12.401Z,93276.02
2019-04-26T02:34:41.163Z,93273.21
2019-04-26T02:37:12.646Z,93271.80
2019-04-26T02:39:42.831Z,93280.84
2019-04-26T02:42:19.726Z,93277.91
2019-04-26T02:45:09.098Z,93280.03
2019-04-26T02:47:46.087Z,93293.80
2019-04-26T02:50:18.762Z,93290.47
2019-04-26T02:53:02.219Z,93287.35
2019-04-26T02:55:48.536Z,93285.18
2019-04-26T02:58:20.046Z,93288.64
2019-04-26T03:00:50.202Z,93284.07
2019-04-26T03:03:20.528Z,93284.04
2019-04-26T03:05:51.768Z,93281.83
2019-04-26T03:08:22.877Z,93287.69
2019-04-26T03:10:54.327Z,93292.41
2019-04-26T03:13:27.474Z,93297.14
2019-04-26T03:16:02.388Z,93297.18
2019-04-26T03:18:36.981Z,93299.20
2019-04-26T03:21:25.360Z,93301.41
2019-04-26T03:24:02.855Z,93296.62
2019-04-26T03:26:35.619Z,93299.73
2019-04-26T03:29:43.747Z,93295.97
2019-04-26T03:32:27.284Z,93292.57
2019-04-26T03:35:17.818Z,93295.97
2019-04-26T03:37:53.390Z,93293.87
2019-04-26T03:40:43.200Z,93298.20
2019-04-26T03:43:34.292Z,93299.83
2019-04-26T03:46:21.196Z,93306.42
2019-04-26T03:49:07.865Z,93301.94
2019-04-26T03:51:48.415Z,93289.11
2019-04-26T03:54:25.842Z,93292.98
2019-04-26T03:57:04.955Z,93300.20
2019-04-26T03:59:42.847Z,93312.34
2019-04-26T04:02:16.060Z,93301.59
2019-04-26T04:04:51.937Z,93300.63
2019-04-26T04:07:36.194Z,93310.41
2019-04-26T04:10:02.194Z,93306.36
2019-04-26T04:12:41.466Z,93312.46
2019-04-26T04:15:22.159Z,93315.08
2019-04-26T04:17:53.732Z,93320.72
2019-04-26T04:20:40.181Z,93325.58
2019-04-26T04:23:20.938Z,93332.11
2019-04-26T04:25:52.054Z,93332.20
2019-04-26T04:28:42.071Z,93342.27
2019-04-26T04:31:16.539Z,93344.19
2019-04-26T04:33:49.633Z,93339.05
2019-04-26T04:36:21.199Z,93345.19
2019-04-26T04:39:13.583Z,93351.19
2019-04-26T04:42:05.049Z,93359.89
2019-04-26T04:45:10.833Z,93355.44
2019-04-26T04:47:46.080Z,93357.69
2019-04-26T04:50:19.124Z,93362.92
2019-04-26T04:52:53.422Z,93380.41
2019-04-26T04:55:42.803Z,93385.95
2019-04-26T04:58:14.598Z,93379.73
2019-04-26T05:00:59.825Z,93377.48
2019-04-26T05:03:46.991Z,93384.51
2019-04-26T05:06:32.222Z,93385.02
2019-04-26T05:09:09.778Z,93387.27
2019-04-26T05:11:56.038Z,93396.78
2019-04-26T05:15:00.706Z,93387.80
2019-04-26T05:17:47.512Z,93392.57
2019-04-26T05:20:24.971Z,93401.33
2019-04-26T05:23:16.356Z,93409.84
2019-04-26T05:25:58.474Z,93412.18
2019-04-26T05:28:48.012Z,93417.22
2019-04-26T05:31:23.621Z,93419.31
2019-04-26T05:34:06.824Z,93420.47
2019-04-26T05:36:53.271Z,93422.16
2019-04-26T05:39:27.590Z,93427.86
2019-04-26T05:42:18.654Z,93435.55
2019-04-26T05:45:26.063Z,93435.98
2019-04-26T05:48:33.890Z,93430.27
2019-04-26T05:51:28.082Z,93434.29
2019-04-26T05:54:16.672Z,93449.38
2019-04-26T05:56:58.908Z,93450.59
2019-04-26T05:59:33.119Z,93444.74
2019-04-26T06:02:46.192Z,93463.27
2019-04-26T06:05:28.281Z,93468.94
2019-04-26T06:08:31.357Z,93482.44
2019-04-26T06:11:00.383Z,93485.59
2019-04-26T06:13:52.168Z,93494.38
2019-04-26T06:16:34.081Z,93492.09
2019-04-26T06:19:43.091Z,93489.96
2019-04-26T06:22:40.121Z,93485.17
2019-04-26T06:25:28.303Z,93486.64
2019-04-26T06:28:00.691Z,93496.25
2019-04-26T06:30:45.683Z,93501.83
2019-04-26T06:33:35.918Z,93499.85
2019-04-26T06:36:09.395Z,93505.68
2019-04-26T06:39:02.288Z,93510.80
2019-04-26T06:42:06.683Z,93507.13
2019-04-26T06:44:51.687Z,93521.50
2019-04-26T06:47:33.705Z,93526.15
2019-04-26T06:50:12.299Z,93537.98
2019-04-26T06:52:52.634Z,93537.82
2019-04-26T06:55:30.086Z,93542.54
2019-04-26T06:58:18.246Z,93545.25
2019-04-26T07:01:09.555Z,93543.84
2019-04-26T07:03:59.696Z,93556.09
2019-04-26T07:06:35.310Z,93560.84
2019-04-26T07:09:08.598Z,93562.89
2019-04-26T07:12:10.285Z,93565.09
2019-04-26T07:15:03.794Z,93571.23
2019-04-26T07:18:12.773Z,93569.15
2019-04-26T07:20:48.953Z,93570.77
2019-04-26T07:23:31.186Z,93571.67
2019-04-26T07:26:14.831Z,93583.37
2019-04-26T07:28:47.729Z,93581.66
2019-04-26T07:31:40.552Z,93574.02
2019-04-26T07:34:42.354Z,93577.09
2019-04-26T07:37:29.004Z,93580.95
2019-04-26T07:40:28.975Z,93595.95
2019-04-26T07:43:10.996Z,93594.12
2019-04-26T07:45:58.975Z,93601.38
2019-04-26T07:48:36.527Z,93602.55
2019-04-26T07:51:41.489Z,93590.46
2019-04-26T07:54:30.007Z,93579.86
2019-04-26T07:57:39.654Z,93587.45
2019-04-26T08:00:27.683Z,93602.16
2019-04-26T08:03:09.531Z,93607.05
2019-04-26T08:05:45.247Z,93606.41
2019-04-26T08:08:16.779Z,93614.92
2019-04-26T08:10:50.950Z,93614.80
2019-04-26T08:13:22.208Z,93622.63
2019-04-26T08:16:01.485Z,93625.24
2019-04-26T08:18:37.483Z,93635.16
2019-04-26T08:21:14.415Z,93641.78
2019-04-26T08:23:45.571Z,93649.16
2019-04-26T08:26:16.202Z,93649.56
2019-04-26T08:28:46.829Z,93655.20
2019-04-26T08:31:20.047Z,93658.74
2019-04-26T08:33:53.311Z,93661.41
2019-04-26T08:36:27.181Z,93657.09
2019-04-26T08:38:55.342Z,93653.47
2019-04-26T08:41:24.801Z,93654.23
2019-04-26T08:44:14.438Z,93659.16
2019-04-26T08:46:46.486Z,93659.59
2019-04-26T08:49:35.178Z,93676.35
2019-04-26T08:52:14.169Z,93672.55
2019-04-26T08:54:39.826Z,93670.70
2019-04-26T08:57:11.214Z,93668.41
2019-04-26T08:59:42.768Z,93663.08
2019-04-26T09:02:30.911Z,93655.30
2019-04-26T09:05:22.787Z,93663.74
2019-04-26T09:07:57.626Z,93662.64
2019-04-26T09:10:27.297Z,93668.30
2019-04-26T09:12:58.833Z,93665.57
2019-04-26T09:15:52.938Z,93673.14
2019-04-26T09:18:21.440Z,93676.35
2019-04-26T09:20:50.177Z,93674.28
2019-04-26T09:23:40.241Z,93671.42
2019-04-26T09:26:25.551Z,93670.05
2019-04-26T09:29:02.104Z,93673.89
2019-04-26T09:31:44.355Z,93673.23
2019-04-26T09:34:15.535Z,93674.30
2019-04-26T09:36:44.422Z,93679.42
2019-04-26T09:39:14.830Z,93678.08
2019-04-26T09:41:43.868Z,93675.02
2019-04-26T09:44:20.090Z,93668.81
2019-04-26T09:46:52.710Z,93668.98
2019-04-26T09:49:25.434Z,93666.46
2019-04-26T09:51:54.405Z,93664.34
2019-04-26T09:54:22.898Z,93672.77
2019-04-26T09:56:51.817Z,93678.42
2019-04-26T09:59:20.438Z,93683.65
2019-04-26T10:01:49.243Z,93686.67
2019-04-26T10:04:17.950Z,93682.52
2019-04-26T10:06:48.504Z,93682.02
2019-04-26T10:09:21.347Z,93685.50
2019-04-26T10:12:03.544Z,93694.91
2019-04-26T10:17:21.530Z,93695.51
2019-04-26T10:19:51.805Z,93689.86
2019-04-26T10:22:20.811Z,93689.72
2019-04-26T10:24:49.603Z,93697.57
2019-04-26T10:27:18.708Z,93704.02
2019-04-26T10:29:47.489Z,93712.41
2019-04-26T10:32:16.247Z,93713.55
2019-04-26T10:34:47.412Z,93718.49
2019-04-26T10:37:15.513Z,93714.28
2019-04-26T10:39:43.929Z,93719.63
2019-04-26T10:42:12.613Z,93718.38
2019-04-26T10:44:41.160Z,93710.27
2019-04-26T10:47:09.755Z,93715.88
2019-04-26T10:49:46.705Z,93721.72
2019-04-26T10:52:24.528Z,93719.72
2019-04-26T10:55:12.231Z,93708.23
2019-04-26T10:57:42.824Z,93702.80
2019-04-26T11:00:14.047Z,93700.08
2019-04-26T11:02:43.806Z,93688.80
2019-04-26T11:05:18.156Z,93686.92
2019-04-26T11:07:42.786Z,93690.67
2019-04-26T11:10:11.433Z,93699.89
2019-04-26T11:12:43.329Z,93697.22
2019-04-26T11:15:11.637Z,93709.37
2019-04-26T11:17:40.105Z,93713.66
2019-04-26T11:20:10.525Z,93725.49
2019-04-26T11:22:39.206Z,93729.13
2019-04-26T11:25:08.646Z,93725.63
2019-04-26T11:27:40.210Z,93728.75
2019-04-26T11:30:12.932Z,93728.00
2019-04-26T11:32:39.094Z,93720.14
2019-04-26T11:35:07.926Z,93719.96
2019-04-26T11:37:36.423Z,93710.55
2019-04-26T11:40:10.189Z,93700.18
2019-04-26T11:42:37.251Z,93694.56
2019-04-26T11:45:14.574Z,93682.80
2019-04-26T11:47:54.302Z,93675.57
2019-04-26T11:50:12.509Z,93667.55
2019-04-26T11:52:42.211Z,93681.58
2019-04-26T11:55:11.016Z,93693.97
2019-04-26T11:57:40.087Z,93711.17
2019-04-26T12:00:10.563Z,93712.48
2019-04-26T12:02:39.154Z,93724.42
2019-04-26T12:05:25.752Z,93720.47
2019-04-26T12:07:55.944Z,93721.06
2019-04-26T12:10:27.044Z,93719.58
2019-04-26T12:13:05.096Z,93714.63
2019-04-26T12:15:30.484Z,93718.64
2019-04-26T12:17:58.723Z,93726.67
2019-04-26T12:20:26.829Z,93730.81
2019-04-26T12:22:55.425Z,93741.57
2019-04-26T12:25:23.843Z,93745.03
2019-04-26T12:27:53.525Z,93750.27
2019-04-26T12:30:26.384Z,93760.22
2019-04-26T12:32:52.504Z,93770.46
2019-04-26T12:35:21.049Z,93772.95
2019-04-26T12:37:50.712Z,93771.57
2019-04-26T12:40:19.760Z,93777.91
2019-04-26T12:42:48.455Z,93774.77
2019-04-26T12:45:24.957Z,93778.84
2019-04-26T12:47:55.027Z,93784.48
2019-04-26T12:50:23.841Z,93789.86
2019-04-26T12:52:55.525Z,93789.98
2019-04-26T12:55:22.649Z,93789.20
2019-04-26T12:57:51.136Z,93796.86
2019-04-26T13:00:21.870Z,93789.00
2019-04-26T13:02:54.219Z,93791.88
2019-04-26T13:05:20.681Z,93792.44
2019-04-26T13:07:52.957Z,93786.63
2019-04-26T13:10:39.656Z,93791.30
2019-04-26T13:13:18.462Z,93790.82
2019-04-26T13:15:56.383Z,93794.61
2019-04-26T13:18:24.825Z,93793.88
2019-04-26T13:20:53.421Z,93791.61
2019-04-26T13:23:25.438Z,93789.08
2019-04-26T13:25:55.450Z,93795.13
2019-04-26T13:28:22.349Z,93798.10
2019-04-26T13:30:51.509Z,93789.44
2019-04-26T13:33:23.284Z,93791.70
2019-04-26T13:36:02.196Z,93792.08
2019-04-26T13:38:21.100Z,93785.81
2019-04-26T13:40:49.632Z,93793.81
2019-04-26T13:43:18.139Z,93798.77
2019-04-26T13:45:54.235Z,93796.13
2019-04-26T13:48:29.777Z,93791.75
2019-04-26T13:51:05.617Z,93795.10
2019-04-26T13:53:33.103Z,93793.93
2019-04-26T13:56:02.288Z,93787.53
2019-04-26T13:58:32.042Z,93786.48
2019-04-26T14:01:00.513Z,93783.27
2019-04-26T14:03:31.756Z,93783.83
2019-04-26T14:05:59.271Z,93784.55
2019-04-26T14:08:27.871Z,93788.01
2019-04-26T14:10:56.571Z,93789.39
2019-04-26T14:13:26.105Z,93778.67
2019-04-26T14:15:54.714Z,93779.94
2019-04-26T14:18:23.204Z,93778.82
2019-04-26T14:20:54.749Z,93777.34
2019-04-26T14:23:39.750Z,93780.56
2019-04-26T14:26:18.697Z,93781.33
2019-04-26T14:28:47.131Z,93773.27
2019-04-26T14:31:16.848Z,93771.89
2019-04-26T14:33:46.179Z,93768.58
2019-04-26T14:36:18.145Z,93770.22
2019-04-26T14:38:44.823Z,93768.81
2019-04-26T14:41:17.584Z,93771.42
2019-04-26T14:43:43.462Z,93773.11
2019-04-26T14:46:14.716Z,93775.17
2019-04-26T14:48:44.642Z,93776.45
2019-04-26T14:51:16.844Z,93766.12
2019-04-26T14:53:42.545Z,93773.14
2019-04-26T14:56:11.027Z,93781.66
2019-04-26T14:58:39.599Z,93780.86
2019-04-26T15:01:10.021Z,93786.17
2019-04-26T15:03:43.108Z,93770.58
2019-04-26T15:06:16.758Z,93770.48
2019-04-26T15:08:46.816Z,93767.95
2019-04-26T15:11:13.895Z,93763.56
2019-04-26T15:13:43.748Z,93766.19
2019-04-26T15:16:14.275Z,93767.01
2019-04-26T15:18:42.939Z,93768.55
2019-04-26T15:21:12.901Z,93776.89
2019-04-26T15:23:41.536Z,93780.83
2019-04-26T15:26:09.971Z,93782.70
2019-04-26T15:28:38.619Z,93785.92
2019-04-26T15:31:07.203Z,93786.04
2019-04-26T15:33:36.074Z,93785.17
2019-04-26T15:36:06.411Z,93786.04
2019-04-26T15:38:41.540Z,93785.58
2019-04-26T15:41:11.439Z,93775.05
2019-04-26T15:43:39.237Z,93773.69
2019-04-26T15:46:13.335Z,93769.73
2019-04-26T15:48:43.703Z,93777.89
2019-04-26T15:51:13.746Z,93772.55
2019-04-26T15:53:47.914Z,93783.83
2019-04-26T15:56:16.274Z,93787.77
2019-04-26T15:58:47.742Z,93791.39
2019-04-26T16:01:13.866Z,93798.95
2019-04-26T16:03:44.587Z,93793.56
2019-04-26T16:06:12.804Z,93793.02
2019-04-26T16:08:43.756Z,93801.78
2019-04-26T16:11:12.483Z,93811.92
2019-04-26T16:13:45.121Z,93809.93
2019-04-26T16:16:12.611Z,93808.44
2019-04-26T16:18:42.996Z,93807.97
2019-04-26T16:21:17.683Z,93805.84
2019-04-26T16:23:51.015Z,93801.82
2019-04-26T16:26:15.244Z,93799.09
2019-04-26T16:29:00.427Z,93809.73
2019-04-26T16:31:47.142Z,93809.80
2019-04-26T16:34:17.227Z,93804.63
2019-04-26T16:36:45.696Z,93811.24
2019-04-26T16:39:14.858Z,93818.61
2019-04-26T16:41:43.429Z,93811.15
2019-04-26T16:44:13.004Z,93812.83
2019-04-26T16:46:43.498Z,93815.67
2019-04-26T16:49:14.016Z,93822.41
2019-04-26T16:51:43.573Z,93826.94
2019-04-26T16:54:20.701Z,93821.38
2019-04-26T16:56:43.909Z,93832.17
2019-04-26T16:59:14.205Z,93830.44
2019-04-26T17:01:47.155Z,93828.06
2019-04-26T17:04:14.139Z,93832.31
2019-04-26T17:06:44.918Z,93828.94
2019-04-26T17:09:14.410Z,93828.36
2019-04-26T17:11:43.557Z,93834.57
2019-04-26T17:14:13.254Z,93834.36
2019-04-26T17:16:42.400Z,93832.39
2019-04-26T17:19:13.637Z,93833.05
2019-04-26T17:21:44.000Z,93841.95
2019-04-26T17:24:19.876Z,93836.16
2019-04-26T17:26:52.875Z,93830.41
2019-04-26T17:29:21.315Z,93828.03
2019-04-26T17:31:49.841Z,93829.33
2019-04-26T17:34:22.536Z,93828.34
2019-04-26T17:36:50.566Z,93829.80
2019-04-26T17:39:18.960Z,93828.23
2019-04-26T17:41:50.602Z,93828.84
2019-04-26T17:44:20.636Z,93830.72
2019-04-26T17:46:48.784Z,93829.03
2019-04-26T17:49:21.402Z,93822.66
2019-04-26T17:51:53.140Z,93827.22
2019-04-26T17:54:34.336Z,93830.27
2019-04-26T17:56:48.868Z,93823.89
2019-04-26T17:59:32.714Z,93824.53
2019-04-26T18:01:57.266Z,93825.42
2019-04-26T18:04:31.621Z,93837.05
2019-04-26T18:06:55.858Z,93834.55
2019-04-26T18:09:38.995Z,93836.63
2019-04-26T18:11:51.045Z,93838.42
2019-04-26T18:14:21.499Z,93840.23
2019-04-26T18:16:53.170Z,93841.25
2019-04-26T18:19:26.340Z,93842.30
2019-04-26T18:21:59.878Z,93844.05
2019-04-26T18:24:32.343Z,93847.22
2019-04-26T18:27:00.524Z,93851.48
2019-04-26T18:29:30.403Z,93849.28
2019-04-26T18:32:03.429Z,93850.97
2019-04-26T18:34:30.539Z,93854.12
2019-04-26T18:37:02.014Z,93851.02
2019-04-26T18:39:29.846Z,93858.31
2019-04-26T18:42:01.967Z,93858.70
2019-04-26T18:44:36.946Z,93857.95
2019-04-26T18:47:03.443Z,93857.44
2019-04-26T18:49:32.951Z,93850.83
2019-04-26T18:52:03.608Z,93857.24
2019-04-26T18:54:34.610Z,93852.77
2019-04-26T18:57:03.391Z,93861.28
2019-04-26T18:59:31.871Z,93864.58
2019-04-26T19:02:00.491Z,93871.44
2019-04-26T19:04:29.099Z,93865.30
2019-04-26T19:06:57.569Z,93873.06
2019-04-26T19:09:26.726Z,93874.42
2019-04-26T19:11:56.264Z,93878.08
2019-04-26T19:14:29.627Z,93877.74
2019-04-26T19:17:14.919Z,93883.52
2019-04-26T19:19:54.155Z,93888.68
2019-04-26T19:22:22.707Z,93888.41
2019-04-26T19:24:55.770Z,93888.72
2019-04-26T19:27:26.530Z,93886.16
2019-04-26T19:29:51.824Z,93889.19
2019-04-26T19:32:21.906Z,93889.44
2019-04-26T19:34:52.388Z,93891.48
2019-04-26T19:37:23.032Z,93894.61
2019-04-26T19:39:51.347Z,93897.69
2019-04-26T19:42:19.843Z,93897.11
2019-04-26T19:44:49.398Z,93902.33
2019-04-26T19:47:20.282Z,93898.16
2019-04-26T19:49:53.764Z,93897.76
2019-04-26T19:52:22.343Z,93895.95
2019-04-26T19:54:53.024Z,93904.08
2019-04-26T19:57:26.016Z,93898.86
2019-04-26T19:59:54.483Z,93904.98
2019-04-26T20:02:26.780Z,93911.91
2019-04-26T20:04:53.260Z,93909.30
2019-04-26T20:07:24.225Z,93919.37
2019-04-26T20:09:52.412Z,93914.58
2019-04-26T20:12:23.422Z,93922.73
2019-04-26T20:14:56.728Z,93919.80
2019-04-26T20:17:23.331Z,93919.73
2019-04-26T20:19:54.422Z,93916.36
2019-04-26T20:22:28.462Z,93918.64
2019-04-26T20:24:55.990Z,93916.66
2019-04-26T20:27:24.564Z,93917.77
2019-04-26T20:29:52.770Z,93919.95
2019-04-26T20:32:28.623Z,93916.95
2019-04-26T20:34:58.732Z,93914.02
2019-04-26T20:37:27.186Z,93915.00
2019-04-26T20:40:15.485Z,93913.34
2019-04-26T20:42:25.753Z,93909.27
2019-04-26T20:44:54.230Z,93910.19
2019-04-26T20:47:22.735Z,93909.53
2019-04-26T20:50:00.580Z,93918.41
2019-04-26T20:52:24.889Z,93921.33
2019-04-26T20:54:54.098Z,93919.34
2019-04-26T20:57:26.656Z,93920.36
2019-04-26T21:00:01.303Z,93918.71
2019-04-26T21:02:24.779Z,93916.76
2019-04-26T21:04:52.755Z,93923.63
2019-04-26T21:07:21.902Z,93920.88
2019-04-26T21:09:50.400Z,93921.06
2019-04-26T21:12:19.127Z,93924.25
2019-04-26T21:14:47.653Z,93927.86
2019-04-26T21:17:19.475Z,93924.01
2019-04-26T21:19:49.891Z,93930.22
2019-04-26T21:22:18.272Z,93926.97
2019-04-26T21:24:50.629Z,93927.78
2019-04-26T21:27:25.689Z,93926.00
2019-04-26T21:29:59.026Z,93927.27
2019-04-26T21:32:43.734Z,93935.13
2019-04-26T21:35:15.472Z,93931.81
2019-04-26T21:37:49.447Z,93924.39
2019-04-26T21:40:26.028Z,93929.46
2019-04-26T21:42:59.353Z,93938.08
2019-04-26T21:45:28.444Z,93939.40
2019-04-26T21:47:54.352Z,93939.08
2019-04-26T21:50:22.786Z,93941.34
2019-04-26T21:52:51.298Z,93944.59
2019-04-26T21:55:19.814Z,93939.08
2019-04-26T21:57:48.521Z,93940.05
2019-04-26T22:00:22.728Z,93943.31
2019-04-26T22:02:51.308Z,93944.78
2019-04-26T22:05:19.754Z,93947.86
2019-04-26T22:07:48.260Z,93943.96
2019-04-26T22:10:18.447Z,93942.00
2019-04-26T22:12:46.892Z,93942.66
2019-04-26T22:15:19.375Z,93938.08
2019-04-26T22:17:52.970Z,93940.70
2019-04-26T22:20:36.641Z,93945.60
2019-04-26T22:23:23.668Z,93947.85
2019-04-26T22:25:56.035Z,93947.87
2019-04-26T22:28:26.884Z,93939.70
2019-04-26T22:30:55.183Z,93949.00
2019-04-26T22:33:27.438Z,93943.95
2019-04-26T22:35:55.320Z,93936.45
2019-04-26T22:38:26.772Z,93939.39
2019-04-26T22:40:56.091Z,93938.77
2019-04-26T22:43:38.294Z,93939.05
2019-04-26T22:46:11.264Z,93944.92
2019-04-26T22:48:41.326Z,93944.59
2019-04-26T22:51:09.850Z,93944.95
2019-04-26T22:53:38.431Z,93942.50
2019-04-26T22:56:06.962Z,93942.33
2019-04-26T22:58:35.649Z,93944.92
2019-04-26T23:01:06.212Z,93948.51
2019-04-26T23:03:36.605Z,93948.84
2019-04-26T23:06:07.869Z,93944.30
2019-04-26T23:08:38.141Z,93947.23
2019-04-26T23:11:09.249Z,93947.55
2019-04-26T23:13:46.096Z,93950.16
2019-04-26T23:16:34.519Z,93948.51
2019-04-26T23:19:07.753Z,93950.16
2019-04-26T23:21:37.828Z,93947.23
2019-04-26T23:24:06.315Z,93946.91
2019-04-26T23:26:37.449Z,93945.60
2019-04-26T23:29:08.561Z,93943.96
2019-04-26T23:31:37.465Z,93948.50
2019-04-26T23:34:06.050Z,93945.27
2019-04-26T23:36:34.915Z,93944.29
2019-04-26T23:39:07.748Z,93943.00
2019-04-26T23:41:37.612Z,93950.16
2019-04-26T23:44:06.719Z,93945.91
2019-04-26T23:46:35.286Z,93945.89
2019-04-26T23:49:03.823Z,93944.56
2019-04-26T23:51:33.956Z,93938.11
2019-04-26T23:54:03.293Z,93942.63
2019-04-26T23:56:33.208Z,93942.66
2019-04-26T23:59:03.571Z,93939.75
